Clutier, Iowa
Current Conditions -  °F | °C
As of 3:55 PM on Wednesday 26 Nov 2014 (Local Time) from KVTI Reporting Station
Light Snow Light Snow  
Wind Chill: 20°   Ceiling: 400
Heat Index: 30°   Visibility: 2.5mi
Dew Point: 26°   Wind: 13mph
Humidity: 86%   Direction: 40°NE
Pressure: 30.12"   Gusts: NA
Location:  42.08°N, 92.4°W
Report Text: KVTI 262155Z AUTO 04011KT 2 1/2SM -SN BKN004 OVC011 M01/M03 A3012 RMK AO2 T10101031
Loading
Personal Weather Stations






























Interactive Weather Map New forecast layout! Learn more

10-Day Weather Forecast

Advertisements
Track Severe Weather on mobile